Soldotna, AK

12:54 AM AKDT on October 01, 2014 (GMT -0800)
Soldotna | Change Station
CLOSE
Current Station
Airport
Location: Soldotna,
Elevation: 112 ft
Nearby Weather Stations

Elev 112 ft 60.48 °N, 151.03 °W | Updated 18 minutes ago

Clear
Clear
27 °F
Feels Like 27 °F
N
0
Wind Variable Wind from North

Today
High -- | Low -- °F
--% Chance of Precip.
Yesterday
High -- | Low -- °F
Precip. -- in
8:10 AM 7:35 PM
Waxing Crescent, 45% visible
Pressure 30.26 in
Visibility 10.0 miles
Clouds Clear
Dew Point 19 °F
Humidity 74%
Rainfall 0.00 in
Snow Depth Not available.
UV 0 out of 12
Pollen Not available.
Air Quality Not available.
Flu Activity Not available.
METAR PASX 010836Z AUTO 00000KT 10SM CLR M03/M07 A3026 RMK AO1

More Conditions Fewer Conditions

Pressure 30.26 in
Visibility 10.0 miles
Clouds Clear
Dew Point 19 °F
Humidity 74%
Rainfall 0.00 in
Snow Depth Not available.
UV 0 out of 12
Pollen Not available.
Air Quality Not available.
Flu Activity Not available.
METAR PASX 010836Z AUTO 00000KT 10SM CLR M03/M07 A3026 RMK AO1

More Conditions Fewer Conditions

10-Day Weather Forecast

Almanac

Astronomy

Oct. 01, 2014 Rise Set
Actual Time 8:10 AM AKDT 7:35 PM AKDT
Civil Twilight 7:28 AM AKDT 8:17 PM AKDT
Nautical Twilight 6:39 AM AKDT 9:06 PM AKDT
Astronomical Twilight 5:46 AM AKDT 9:58 PM AKDT
Moon 4:28 PM AKDT No Moon Set
Length of Visible Light 12h 48m
Length of Day
11h 24m
Tomorrow will be 5m 30s shorter.
Waxing Crescent, 45% of the Moon is Illuminated
Today
Waxing Crescent
Oct 1
First Quarter
Oct 8
Full
Oct 15
Last Quarter
Oct 23
New

Today's Extremes

State Highs State Lows

Community

WunderPhotos

Upload Photos

1,757,902 photos uploaded!

Nearby

Snow Depth

Station Depth Elevation
Imnaviat Creek 22 in 3050 ft
Atigun Pass 87 in 4800 ft
Long Lake 0 in 820 ft
Granite Creek 0 in 1240 ft
Port Graham 0 in 300 ft

Earthquake Activity

City Distance Mag. Time & Date
No recent earthquake activity has been reported nearby.
Minimum magnitude displayed is 2.5.

Coastal Water Temperatures

Place Temperature
No Stations Reporting

Nearby Weather Stations